sensor_id;sensor_type;location;lat;lon;timestamp;pressure;altitude;pressure_sealevel;temperature;humidity
54882;BME280;40775;51.448;4.742;2023-02-23T00:02:06;101220.53;;;12.95;100.00
54882;BME280;40775;51.448;4.742;2023-02-23T00:04:36;101216.41;;;13.13;100.00
54882;BME280;40775;51.448;4.742;2023-02-23T00:07:05;101214.03;;;13.26;100.00
54882;BME280;40775;51.448;4.742;2023-02-23T00:09:32;101213.28;;;13.35;100.00
54882;BME280;40775;51.448;4.742;2023-02-23T00:12:04;101209.84;;;13.41;100.00
54882;BME280;40775;51.448;4.742;2023-02-23T00:14:36;101210.81;;;13.46;100.00
54882;BME280;40775;51.448;4.742;2023-02-23T00:17:05;101210.84;;;13.49;100.00
54882;BME280;40775;51.448;4.742;2023-02-23T00:19:40;101212.66;;;13.53;100.00
54882;BME280;40775;51.448;4.742;2023-02-23T00:22:09;101224.34;;;9.73;100.00
54882;BME280;40775;51.448;4.742;2023-02-23T00:24:36;101240.16;;;9.47;100.00
54882;BME280;40775;51.448;4.742;2023-02-23T00:27:04;101251.19;;;9.37;100.00
54882;BME280;40775;51.448;4.742;2023-02-23T00:29:32;101258.13;;;9.35;100.00
54882;BME280;40775;51.448;4.742;2023-02-23T00:32:06;101258.97;;;9.34;100.00
54882;BME280;40775;51.448;4.742;2023-02-23T00:34:33;101258.06;;;9.34;100.00
54882;BME280;40775;51.448;4.742;2023-02-23T00:37:01;101257.94;;;9.30;100.00
54882;BME280;40775;51.448;4.742;2023-02-23T00:39:28;101257.84;;;9.27;100.00
54882;BME280;40775;51.448;4.742;2023-02-23T00:41:56;101261.28;;;9.25;100.00
54882;BME280;40775;51.448;4.742;2023-02-23T00:44:28;101261.03;;;9.17;100.00
54882;BME280;40775;51.448;4.742;2023-02-23T00:46:55;101267.16;;;9.18;100.00
54882;BME280;40775;51.448;4.742;2023-02-23T00:49:22;101264.53;;;9.18;100.00
54882;BME280;40775;51.448;4.742;2023-02-23T00:51:50;101256.72;;;9.19;100.00
54882;BME280;40775;51.448;4.742;2023-02-23T00:54:19;101259.25;;;9.16;100.00
54882;BME280;40775;51.448;4.742;2023-02-23T00:56:47;101268.84;;;9.16;100.00
54882;BME280;40775;51.448;4.742;2023-02-23T00:59:14;101274.03;;;9.14;100.00
54882;BME280;40775;51.448;4.742;2023-02-23T01:01:42;101261.81;;;9.15;100.00
54882;BME280;40775;51.448;4.742;2023-02-23T01:04:11;101268.00;;;9.17;100.00
54882;BME280;40775;51.448;4.742;2023-02-23T01:06:39;101269.53;;;9.10;100.00
54882;BME280;40775;51.448;4.742;2023-02-23T01:09:14;101265.25;;;9.12;100.00
54882;BME280;40775;51.448;4.742;2023-02-23T01:11:47;101274.78;;;9.10;100.00
54882;BME280;40775;51.448;4.742;2023-02-23T01:14:14;101270.44;;;9.11;100.00
54882;BME280;40775;51.448;4.742;2023-02-23T01:16:41;101276.59;;;9.13;100.00
54882;BME280;40775;51.448;4.742;2023-02-23T01:19:09;101273.00;;;9.09;100.00
54882;BME280;40775;51.448;4.742;2023-02-23T01:21:40;101267.66;;;9.06;100.00
54882;BME280;40775;51.448;4.742;2023-02-23T01:24:09;101271.28;;;9.10;100.00
54882;BME280;40775;51.448;4.742;2023-02-23T01:26:40;101270.31;;;9.08;100.00
54882;BME280;40775;51.448;4.742;2023-02-23T01:29:12;101275.56;;;9.08;100.00
54882;BME280;40775;51.448;4.742;2023-02-23T01:31:45;101274.63;;;9.06;100.00
54882;BME280;40775;51.448;4.742;2023-02-23T01:34:13;101271.03;;;9.04;100.00
54882;BME280;40775;51.448;4.742;2023-02-23T01:36:42;101271.16;;;9.07;100.00
54882;BME280;40775;51.448;4.742;2023-02-23T01:39:15;101278.91;;;9.04;100.00
54882;BME280;40775;51.448;4.742;2023-02-23T01:41:44;101286.84;;;9.05;100.00
54882;BME280;40775;51.448;4.742;2023-02-23T01:46:44;101287.59;;;9.03;100.00
54882;BME280;40775;51.448;4.742;2023-02-23T01:49:22;101284.91;;;9.01;100.00
54882;BME280;40775;51.448;4.742;2023-02-23T01:52:02;101279.63;;;8.99;100.00
54882;BME280;40775;51.448;4.742;2023-02-23T01:54:42;101284.91;;;9.01;100.00
54882;BME280;40775;51.448;4.742;2023-02-23T01:57:12;101282.22;;;8.98;100.00
54882;BME280;40775;51.448;4.742;2023-02-23T01:59:47;101289.28;;;9.01;100.00
54882;BME280;40775;51.448;4.742;2023-02-23T02:02:22;101283.09;;;8.98;100.00
54882;BME280;40775;51.448;4.742;2023-02-23T02:04:53;101281.31;;;8.97;100.00
54882;BME280;40775;51.448;4.742;2023-02-23T02:07:25;101283.88;;;8.96;100.00
54882;BME280;40775;51.448;4.742;2023-02-23T02:09:56;101280.41;;;8.97;100.00
54882;BME280;40775;51.448;4.742;2023-02-23T02:12:45;101278.69;;;8.97;100.00
54882;BME280;40775;51.448;4.742;2023-02-23T02:15:18;101279.53;;;8.96;100.00
54882;BME280;40775;51.448;4.742;2023-02-23T02:18:14;101274.31;;;8.96;100.00
54882;BME280;40775;51.448;4.742;2023-02-23T02:24:56;101282.00;;;8.92;100.00
54882;BME280;40775;51.448;4.742;2023-02-23T02:45:53;101285.50;;;8.92;100.00
54882;BME280;40775;51.448;4.742;2023-02-23T02:51:41;101282.84;;;8.91;100.00
54882;BME280;40775;51.448;4.742;2023-02-23T02:54:24;101287.09;;;8.87;100.00
54882;BME280;40775;51.448;4.742;2023-02-23T02:56:56;101282.75;;;8.88;100.00
54882;BME280;40775;51.448;4.742;2023-02-23T02:59:26;101275.78;;;8.88;100.00
54882;BME280;40775;51.448;4.742;2023-02-23T03:02:21;101277.56;;;8.89;100.00
54882;BME280;40775;51.448;4.742;2023-02-23T03:05:17;101277.50;;;8.88;100.00
54882;BME280;40775;51.448;4.742;2023-02-23T03:08:25;101286.19;;;8.87;100.00
54882;BME280;40775;51.448;4.742;2023-02-23T03:11:13;101281.81;;;8.86;100.00
54882;BME280;40775;51.448;4.742;2023-02-23T03:14:32;101278.28;;;8.85;100.00
54882;BME280;40775;51.448;4.742;2023-02-23T03:17:43;101291.38;;;8.85;100.00
54882;BME280;40775;51.448;4.742;2023-02-23T03:20:45;101286.94;;;8.83;100.00
54882;BME280;40775;51.448;4.742;2023-02-23T03:26:42;101292.22;;;8.84;100.00
54882;BME280;40775;51.448;4.742;2023-02-23T03:29:45;101296.53;;;8.82;100.00
54882;BME280;40775;51.448;4.742;2023-02-23T03:32:49;101302.59;;;8.81;100.00
54882;BME280;40775;51.448;4.742;2023-02-23T03:36:00;101304.38;;;8.82;100.00
54882;BME280;40775;51.448;4.742;2023-02-23T03:39:13;101296.47;;;8.81;100.00
54882;BME280;40775;51.448;4.742;2023-02-23T03:42:03;101299.91;;;8.80;100.00
54882;BME280;40775;51.448;4.742;2023-02-23T03:44:51;101299.13;;;8.82;100.00
54882;BME280;40775;51.448;4.742;2023-02-23T03:47:40;101303.44;;;8.80;100.00
54882;BME280;40775;51.448;4.742;2023-02-23T03:50:38;101298.25;;;8.82;100.00
54882;BME280;40775;51.448;4.742;2023-02-23T03:53:57;101299.03;;;8.79;100.00
54882;BME280;40775;51.448;4.742;2023-02-23T03:56:49;101298.97;;;8.78;100.00
54882;BME280;40775;51.448;4.742;2023-02-23T03:59:47;101304.13;;;8.76;100.00
54882;BME280;40775;51.448;4.742;2023-02-23T04:02:36;101301.66;;;8.79;100.00
54882;BME280;40775;51.448;4.742;2023-02-23T04:05:24;101307.69;;;8.77;100.00
54882;BME280;40775;51.448;4.742;2023-02-23T04:08:13;101305.06;;;8.77;100.00
54882;BME280;40775;51.448;4.742;2023-02-23T04:11:15;101308.47;;;8.76;100.00
54882;BME280;40775;51.448;4.742;2023-02-23T04:14:07;101319.75;;;8.73;100.00
54882;BME280;40775;51.448;4.742;2023-02-23T04:16:38;101315.44;;;8.75;100.00
54882;BME280;40775;51.448;4.742;2023-02-23T04:19:07;101316.28;;;8.74;100.00
54882;BME280;40775;51.448;4.742;2023-02-23T04:21:34;101315.53;;;8.77;100.00
54882;BME280;40775;51.448;4.742;2023-02-23T04:24:01;101316.28;;;8.74;100.00
54882;BME280;40775;51.448;4.742;2023-02-23T04:26:28;101325.81;;;8.72;100.00
54882;BME280;40775;51.448;4.742;2023-02-23T04:28:55;101324.06;;;8.73;100.00
54882;BME280;40775;51.448;4.742;2023-02-23T04:31:23;101327.53;;;8.72;100.00
54882;BME280;40775;51.448;4.742;2023-02-23T04:33:51;101320.63;;;8.74;100.00
54882;BME280;40775;51.448;4.742;2023-02-23T04:36:18;101322.41;;;8.75;100.00
54882;BME280;40775;51.448;4.742;2023-02-23T04:38:45;101323.19;;;8.72;100.00
54882;BME280;40775;51.448;4.742;2023-02-23T04:41:12;101329.31;;;8.73;100.00
54882;BME280;40775;51.448;4.742;2023-02-23T04:43:39;101324.91;;;8.72;100.00
54882;BME280;40775;51.448;4.742;2023-02-23T04:46:06;101325.81;;;8.72;100.00
54882;BME280;40775;51.448;4.742;2023-02-23T04:48:34;101318.94;;;8.76;100.00
54882;BME280;40775;51.448;4.742;2023-02-23T04:51:01;101327.84;;;8.79;100.00
54882;BME280;40775;51.448;4.742;2023-02-23T04:53:28;101328.66;;;8.78;100.00
54882;BME280;40775;51.448;4.742;2023-02-23T04:55:55;101322.47;;;8.76;100.00
54882;BME280;40775;51.448;4.742;2023-02-23T04:58:30;101322.41;;;8.75;100.00
54882;BME280;40775;51.448;4.742;2023-02-23T05:01:05;101329.41;;;8.76;100.00
54882;BME280;40775;51.448;4.742;2023-02-23T05:03:32;101323.28;;;8.75;100.00
54882;BME280;40775;51.448;4.742;2023-02-23T05:06:00;101327.00;;;8.80;100.00
54882;BME280;40775;51.448;4.742;2023-02-23T05:08:27;101332.13;;;8.77;100.00
54882;BME280;40775;51.448;4.742;2023-02-23T05:10:54;101330.44;;;8.79;100.00
54882;BME280;40775;51.448;4.742;2023-02-23T05:13:21;101333.00;;;8.78;100.00
54882;BME280;40775;51.448;4.742;2023-02-23T05:15:49;101334.66;;;8.76;100.00
54882;BME280;40775;51.448;4.742;2023-02-23T05:18:16;101333.75;;;8.75;100.00
54882;BME280;40775;51.448;4.742;2023-02-23T05:20:43;101332.22;;;8.80;100.00
54882;BME280;40775;51.448;4.742;2023-02-23T05:23:13;101333.06;;;8.79;100.00
54882;BME280;40775;51.448;4.742;2023-02-23T05:25:40;101325.25;;;8.81;100.00
54882;BME280;40775;51.448;4.742;2023-02-23T05:28:07;101327.78;;;8.78;100.00
54882;BME280;40775;51.448;4.742;2023-02-23T05:30:34;101331.03;;;8.72;100.00
54882;BME280;40775;51.448;4.742;2023-02-23T05:33:02;101344.06;;;8.71;100.00
54882;BME280;40775;51.448;4.742;2023-02-23T05:35:29;101346.47;;;8.64;100.00
54882;BME280;40775;51.448;4.742;2023-02-23T05:37:56;101340.34;;;8.64;100.00
54882;BME280;40775;51.448;4.742;2023-02-23T05:40:23;101341.13;;;8.61;100.00
54882;BME280;40775;51.448;4.742;2023-02-23T05:42:50;101342.25;;;8.68;100.00
54882;BME280;40775;51.448;4.742;2023-02-23T05:45:17;101351.78;;;8.66;100.00
54882;BME280;40775;51.448;4.742;2023-02-23T05:47:44;101352.66;;;8.66;100.00
54882;BME280;40775;51.448;4.742;2023-02-23T05:50:11;101349.16;;;8.66;100.00
54882;BME280;40775;51.448;4.742;2023-02-23T05:52:39;101351.81;;;8.67;100.00
54882;BME280;40775;51.448;4.742;2023-02-23T05:55:09;101347.47;;;8.68;100.00
54882;BME280;40775;51.448;4.742;2023-02-23T05:57:38;101344.88;;;8.68;100.00
54882;BME280;40775;51.448;4.742;2023-02-23T06:00:08;101342.34;;;8.71;100.00
54882;BME280;40775;51.448;4.742;2023-02-23T06:02:35;101348.38;;;8.68;100.00
54882;BME280;40775;51.448;4.742;2023-02-23T06:05:03;101344.97;;;8.71;100.00
54882;BME280;40775;51.448;4.742;2023-02-23T06:07:31;101345.81;;;8.70;100.00
54882;BME280;40775;51.448;4.742;2023-02-23T06:09:58;101364.91;;;8.67;100.00
54882;BME280;40775;51.448;4.742;2023-02-23T06:12:25;101380.78;;;8.72;100.00
54882;BME280;40775;51.448;4.742;2023-02-23T06:14:52;101368.47;;;8.70;100.00
54882;BME280;40775;51.448;4.742;2023-02-23T06:17:19;101373.66;;;8.68;100.00
54882;BME280;40775;51.448;4.742;2023-02-23T06:19:46;101366.63;;;8.67;100.00
54882;BME280;40775;51.448;4.742;2023-02-23T06:22:14;101380.56;;;8.66;100.00
54882;BME280;40775;51.448;4.742;2023-02-23T06:24:43;101381.28;;;8.62;100.00
54882;BME280;40775;51.448;4.742;2023-02-23T06:27:11;101376.00;;;8.60;100.00
54882;BME280;40775;51.448;4.742;2023-02-23T06:29:39;101381.13;;;8.57;100.00
54882;BME280;40775;51.448;4.742;2023-02-23T06:32:07;101382.00;;;8.58;100.00
54882;BME280;40775;51.448;4.742;2023-02-23T06:34:34;101389.88;;;8.58;100.00
54882;BME280;40775;51.448;4.742;2023-02-23T06:37:02;101398.66;;;8.60;100.00
54882;BME280;40775;51.448;4.742;2023-02-23T06:39:29;101401.28;;;8.60;100.00
54882;BME280;40775;51.448;4.742;2023-02-23T06:41:56;101395.16;;;8.59;100.00
54882;BME280;40775;51.448;4.742;2023-02-23T06:44:23;101406.41;;;8.57;100.00
54882;BME280;40775;51.448;4.742;2023-02-23T06:46:50;101419.00;;;9.93;100.00
54882;BME280;40775;51.448;4.742;2023-02-23T06:49:17;101410.03;;;11.01;100.00
54882;BME280;40775;51.448;4.742;2023-02-23T06:51:44;101403.13;;;11.72;100.00
54882;BME280;40775;51.448;4.742;2023-02-23T06:54:11;101395.50;;;12.19;100.00
54882;BME280;40775;51.448;4.742;2023-02-23T06:56:38;101378.66;;;12.52;100.00
54882;BME280;40775;51.448;4.742;2023-02-23T06:59:05;101370.38;;;12.77;100.00
54882;BME280;40775;51.448;4.742;2023-02-23T07:01:32;101373.31;;;12.91;100.00
54882;BME280;40775;51.448;4.742;2023-02-23T07:04:00;101384.16;;;13.09;100.00
54882;BME280;40775;51.448;4.742;2023-02-23T07:06:27;101383.53;;;13.19;100.00
54882;BME280;40775;51.448;4.742;2023-02-23T07:08:57;101381.06;;;13.28;100.00
54882;BME280;40775;51.448;4.742;2023-02-23T07:11:24;101379.41;;;13.35;100.00
54882;BME280;40775;51.448;4.742;2023-02-23T07:13:51;101382.97;;;13.39;100.00
54882;BME280;40775;51.448;4.742;2023-02-23T07:16:18;101390.03;;;13.40;100.00
54882;BME280;40775;51.448;4.742;2023-02-23T07:18:45;101394.56;;;13.45;100.00
54882;BME280;40775;51.448;4.742;2023-02-23T07:21:12;101394.56;;;13.47;100.00
54882;BME280;40775;51.448;4.742;2023-02-23T07:23:39;101414.91;;;13.54;100.00
54882;BME280;40775;51.448;4.742;2023-02-23T07:26:06;101409.63;;;13.54;100.00
54882;BME280;40775;51.448;4.742;2023-02-23T07:28:33;101409.66;;;13.55;100.00
54882;BME280;40775;51.448;4.742;2023-02-23T07:31:00;101413.25;;;13.59;100.00
54882;BME280;40775;51.448;4.742;2023-02-23T07:33:27;101420.31;;;13.61;100.00
54882;BME280;40775;51.448;4.742;2023-02-23T07:35:54;101418.56;;;13.62;100.00
54882;BME280;40775;51.448;4.742;2023-02-23T07:38:21;101422.97;;;13.63;100.00
54882;BME280;40775;51.448;4.742;2023-02-23T07:40:50;101430.03;;;13.64;100.00
54882;BME280;40775;51.448;4.742;2023-02-23T07:43:17;101427.41;;;13.66;100.00
54882;BME280;40775;51.448;4.742;2023-02-23T07:45:47;101426.56;;;13.67;100.00
54882;BME280;40775;51.448;4.742;2023-02-23T07:48:15;101437.19;;;13.70;100.00
54882;BME280;40775;51.448;4.742;2023-02-23T07:50:42;101440.75;;;13.72;100.00
54882;BME280;40775;51.448;4.742;2023-02-23T07:53:09;101436.34;;;13.72;100.00
54882;BME280;40775;51.448;4.742;2023-02-23T07:55:37;101445.22;;;13.77;100.00
54882;BME280;40775;51.448;4.742;2023-02-23T07:58:06;101449.63;;;13.77;100.00
54882;BME280;40775;51.448;4.742;2023-02-23T08:00:34;101444.34;;;13.78;100.00
54882;BME280;40775;51.448;4.742;2023-02-23T08:03:02;101451.38;;;13.78;100.00
54882;BME280;40775;51.448;4.742;2023-02-23T08:05:29;101452.28;;;13.78;100.00
54882;BME280;40775;51.448;4.742;2023-02-23T08:07:57;101451.47;;;13.82;100.00
54882;BME280;40775;51.448;4.742;2023-02-23T08:10:25;101455.00;;;13.84;100.00
54882;BME280;40775;51.448;4.742;2023-02-23T08:12:52;101460.25;;;13.81;100.00
54882;BME280;40775;51.448;4.742;2023-02-23T08:15:19;101466.16;;;13.68;100.00
54882;BME280;40775;51.448;4.742;2023-02-23T08:17:46;101464.59;;;13.79;100.00
54882;BME280;40775;51.448;4.742;2023-02-23T08:20:13;101472.56;;;13.82;100.00
54882;BME280;40775;51.448;4.742;2023-02-23T08:22:40;101472.59;;;13.84;100.00
54882;BME280;40775;51.448;4.742;2023-02-23T08:25:16;101468.16;;;13.81;100.00
54882;BME280;40775;51.448;4.742;2023-02-23T08:27:43;101473.50;;;13.86;100.00
54882;BME280;40775;51.448;4.742;2023-02-23T08:30:12;101476.16;;;13.87;100.00
54882;BME280;40775;51.448;4.742;2023-02-23T08:32:39;101471.81;;;13.89;100.00
54882;BME280;40775;51.448;4.742;2023-02-23T08:35:08;101482.38;;;13.89;100.00
54882;BME280;40775;51.448;4.742;2023-02-23T08:37:35;101480.63;;;13.91;100.00
54882;BME280;40775;51.448;4.742;2023-02-23T08:40:03;101488.56;;;13.91;100.00
54882;BME280;40775;51.448;4.742;2023-02-23T08:42:30;101483.28;;;13.91;100.00
54882;BME280;40775;51.448;4.742;2023-02-23T08:44:57;101492.97;;;13.92;100.00
54882;BME280;40775;51.448;4.742;2023-02-23T08:47:24;101489.47;;;13.93;100.00
54882;BME280;40775;51.448;4.742;2023-02-23T08:49:52;101492.97;;;13.92;100.00
54882;BME280;40775;51.448;4.742;2023-02-23T08:52:22;101494.75;;;13.93;100.00
54882;BME280;40775;51.448;4.742;2023-02-23T08:54:49;101496.28;;;13.79;100.00
54882;BME280;40775;51.448;4.742;2023-02-23T08:57:17;101498.91;;;13.79;100.00
54882;BME280;40775;51.448;4.742;2023-02-23T08:59:45;101505.06;;;13.78;100.00
54882;BME280;40775;51.448;4.742;2023-02-23T09:02:13;101507.78;;;13.83;100.00
54882;BME280;40775;51.448;4.742;2023-02-23T09:04:40;101510.50;;;13.89;100.00
54882;BME280;40775;51.448;4.742;2023-02-23T09:07:13;101508.81;;;13.92;100.00
54882;BME280;40775;51.448;4.742;2023-02-23T09:09:40;101506.97;;;13.88;100.00
54882;BME280;40775;51.448;4.742;2023-02-23T09:12:08;101514.75;;;13.79;100.00
54882;BME280;40775;51.448;4.742;2023-02-23T09:14:35;101513.06;;;13.84;100.00
54882;BME280;40775;51.448;4.742;2023-02-23T09:17:02;101522.56;;;13.73;100.00
54882;BME280;40775;51.448;4.742;2023-02-23T09:19:30;101527.09;;;13.80;100.00
54882;BME280;40775;51.448;4.742;2023-02-23T09:21:57;101520.47;;;13.55;100.00
54882;BME280;40775;51.448;4.742;2023-02-23T09:24:24;101518.88;;;13.65;100.00
54882;BME280;40775;51.448;4.742;2023-02-23T09:26:51;101525.22;;;13.75;100.00
54882;BME280;40775;51.448;4.742;2023-02-23T09:29:19;101530.59;;;13.79;100.00
54882;BME280;40775;51.448;4.742;2023-02-23T09:31:46;101533.19;;;13.78;100.00
54882;BME280;40775;51.448;4.742;2023-02-23T09:34:13;101534.13;;;13.81;100.00
54882;BME280;40775;51.448;4.742;2023-02-23T09:36:41;101526.28;;;13.86;100.00
54882;BME280;40775;51.448;4.742;2023-02-23T09:39:08;101531.53;;;13.84;100.00
54882;BME280;40775;51.448;4.742;2023-02-23T09:45:11;101526.28;;;13.84;100.00
54882;BME280;40775;51.448;4.742;2023-02-23T09:50:28;101521.03;;;13.87;100.00
54882;BME280;40775;51.448;4.742;2023-02-23T09:53:03;101533.56;;;13.98;100.00
54882;BME280;40775;51.448;4.742;2023-02-23T09:55:32;101529.75;;;13.82;100.00
54882;BME280;40775;51.448;4.742;2023-02-23T09:58:06;101531.59;;;13.87;100.00
54882;BME280;40775;51.448;4.742;2023-02-23T10:00:44;101546.53;;;13.87;100.00
54882;BME280;40775;51.448;4.742;2023-02-23T10:03:33;101534.69;;;13.65;100.00
54882;BME280;40775;51.448;4.742;2023-02-23T10:06:07;101530.31;;;13.66;100.00
54882;BME280;40775;51.448;4.742;2023-02-23T10:11:36;101536.97;;;13.93;100.00
54882;BME280;40775;51.448;4.742;2023-02-23T10:17:38;101546.69;;;13.95;100.00
54882;BME280;40775;51.448;4.742;2023-02-23T10:22:54;101541.31;;;13.90;100.00
54882;BME280;40775;51.448;4.742;2023-02-23T10:25:26;101541.41;;;13.96;100.00
54882;BME280;40775;51.448;4.742;2023-02-23T10:27:55;101539.66;;;13.95;100.00
54882;BME280;40775;51.448;4.742;2023-02-23T10:30:30;101544.13;;;13.98;100.00
54882;BME280;40775;51.448;4.742;2023-02-23T10:35:38;101553.88;;;14.02;100.00
54882;BME280;40775;51.448;4.742;2023-02-23T10:38:08;101550.28;;;13.98;100.00
54882;BME280;40775;51.448;4.742;2023-02-23T10:40:41;101552.94;;;14.00;100.00
54882;BME280;40775;51.448;4.742;2023-02-23T10:43:11;101551.19;;;14.00;100.00
54882;BME280;40775;51.448;4.742;2023-02-23T10:45:46;101551.22;;;14.02;100.00
54882;BME280;40775;51.448;4.742;2023-02-23T10:48:23;101550.38;;;14.04;100.00
54882;BME280;40775;51.448;4.742;2023-02-23T10:50:55;101558.16;;;13.97;100.00
54882;BME280;40775;51.448;4.742;2023-02-23T10:53:35;101549.25;;;13.90;100.00
54882;BME280;40775;51.448;4.742;2023-02-23T10:56:06;101551.03;;;13.92;100.00
54882;BME280;40775;51.448;4.742;2023-02-23T10:58:57;101551.09;;;13.96;100.00
54882;BME280;40775;51.448;4.742;2023-02-23T11:01:41;101562.38;;;13.87;100.00
54882;BME280;40775;51.448;4.742;2023-02-23T11:04:32;101551.63;;;13.75;100.00
54882;BME280;40775;51.448;4.742;2023-02-23T11:07:17;101566.66;;;13.80;100.00
54882;BME280;40775;51.448;4.742;2023-02-23T11:09:44;101561.44;;;13.83;100.00
54882;BME280;40775;51.448;4.742;2023-02-23T11:12:38;101566.63;;;13.77;100.00
54882;BME280;40775;51.448;4.742;2023-02-23T11:15:31;101557.78;;;13.32;100.00
54882;BME280;40775;51.448;4.742;2023-02-23T11:18:24;101554.03;;;13.64;100.00
54882;BME280;40775;51.448;4.742;2023-02-23T11:20:52;101546.16;;;13.67;100.00
54882;BME280;40775;51.448;4.742;2023-02-23T11:23:37;101533.84;;;13.66;100.00
54882;BME280;40775;51.448;4.742;2023-02-23T11:26:35;101532.94;;;13.66;100.00
54882;BME280;40775;51.448;4.742;2023-02-23T11:29:23;101528.25;;;13.48;100.00
54882;BME280;40775;51.448;4.742;2023-02-23T11:31:56;101536.25;;;13.54;100.00
54882;BME280;40775;51.448;4.742;2023-02-23T11:34:34;101525.94;;;13.21;100.00
54882;BME280;40775;51.448;4.742;2023-02-23T11:37:06;101543.75;;;13.33;100.00
54882;BME280;40775;51.448;4.742;2023-02-23T11:39:33;101546.88;;;13.15;100.00
54882;BME280;40775;51.448;4.742;2023-02-23T11:42:22;101538.88;;;13.12;100.00
54882;BME280;40775;51.448;4.742;2023-02-23T11:45:15;101541.09;;;13.33;100.00
54882;BME280;40775;51.448;4.742;2023-02-23T11:47:52;101544.16;;;13.52;100.00
54882;BME280;40775;51.448;4.742;2023-02-23T11:53:56;101545.44;;;13.74;100.00
54882;BME280;40775;51.448;4.742;2023-02-23T11:56:05;101553.53;;;13.83;100.00
54882;BME280;40775;51.448;4.742;2023-02-23T12:01:41;101538.53;;;13.81;100.00
54882;BME280;40775;51.448;4.742;2023-02-23T12:04:36;101533.22;;;13.79;100.00
54882;BME280;40775;51.448;4.742;2023-02-23T12:07:38;101535.88;;;13.81;100.00
54882;BME280;40775;51.448;4.742;2023-02-23T12:10:20;101525.28;;;13.78;100.00
54882;BME280;40775;51.448;4.742;2023-02-23T12:19:46;101521.13;;;13.44;100.00
54882;BME280;40775;51.448;4.742;2023-02-23T12:22:24;101523.47;;;13.30;100.00
54882;BME280;40775;51.448;4.742;2023-02-23T12:25:01;101511.44;;;13.43;100.00
54882;BME280;40775;51.448;4.742;2023-02-23T12:27:45;101513.78;;;13.74;100.00
54882;BME280;40775;51.448;4.742;2023-02-23T12:30:42;101503.63;;;13.97;100.00
54882;BME280;40775;51.448;4.742;2023-02-23T12:36:43;101509.91;;;14.04;100.00
54882;BME280;40775;51.448;4.742;2023-02-23T12:39:21;101514.38;;;14.08;100.00
54882;BME280;40775;51.448;4.742;2023-02-23T12:42:22;101508.50;;;13.74;100.00
54882;BME280;40775;51.448;4.742;2023-02-23T12:44:57;101518.34;;;13.84;100.00
54882;BME280;40775;51.448;4.742;2023-02-23T12:50:41;101528.72;;;13.74;100.00
54882;BME280;40775;51.448;4.742;2023-02-23T12:53:42;101523.44;;;13.28;100.00
54882;BME280;40775;51.448;4.742;2023-02-23T12:56:32;101515.88;;;13.45;100.00
54882;BME280;40775;51.448;4.742;2023-02-23T13:02:27;101514.13;;;13.94;100.00
54882;BME280;40775;51.448;4.742;2023-02-23T13:18:36;101519.44;;;13.47;100.00
54882;BME280;40775;51.448;4.742;2023-02-23T13:21:15;101515.66;;;13.81;100.00
54882;BME280;40775;51.448;4.742;2023-02-23T13:29:32;101511.88;;;14.17;100.00
54882;BME280;40775;51.448;4.742;2023-02-23T13:32:02;101519.84;;;14.20;100.00
54882;BME280;40775;51.448;4.742;2023-02-23T13:34:35;101523.34;;;14.20;100.00
54882;BME280;40775;51.448;4.742;2023-02-23T13:37:06;101521.59;;;14.21;100.00
54882;BME280;40775;51.448;4.742;2023-02-23T13:40:21;101522.50;;;14.21;100.00
54882;BME280;40775;51.448;4.742;2023-02-23T13:43:12;101520.06;;;13.82;100.00
54882;BME280;40775;51.448;4.742;2023-02-23T13:49:09;101526.78;;;14.15;100.00
54882;BME280;40775;51.448;4.742;2023-02-23T13:51:48;101520.66;;;14.17;100.00
54882;BME280;40775;51.448;4.742;2023-02-23T13:54:31;101540.97;;;14.20;100.00
54882;BME280;40775;51.448;4.742;2023-02-23T13:57:03;101527.75;;;14.20;100.00
54882;BME280;40775;51.448;4.742;2023-02-23T13:59:41;101531.28;;;14.20;100.00
54882;BME280;40775;51.448;4.742;2023-02-23T14:05:18;101543.59;;;14.20;100.00
54882;BME280;40775;51.448;4.742;2023-02-23T14:07:50;101545.28;;;14.15;100.00
54882;BME280;40775;51.448;4.742;2023-02-23T14:10:25;101539.41;;;13.81;100.00
54882;BME280;40775;51.448;4.742;2023-02-23T14:15:45;101546.09;;;14.11;100.00
54882;BME280;40775;51.448;4.742;2023-02-23T14:21:01;101550.88;;;13.82;100.00
54882;BME280;40775;51.448;4.742;2023-02-23T14:26:40;101536.53;;;13.69;100.00
54882;BME280;40775;51.448;4.742;2023-02-23T14:29:25;101533.28;;;13.82;100.00
54882;BME280;40775;51.448;4.742;2023-02-23T14:35:00;101536.47;;;14.14;100.00
54882;BME280;40775;51.448;4.742;2023-02-23T14:37:39;101539.19;;;14.19;100.00
54882;BME280;40775;51.448;4.742;2023-02-23T14:40:20;101530.34;;;14.17;100.00
54882;BME280;40775;51.448;4.742;2023-02-23T14:42:56;101531.59;;;13.87;100.00
54882;BME280;40775;51.448;4.742;2023-02-23T14:45:41;101526.56;;;14.00;100.00
54882;BME280;40775;51.448;4.742;2023-02-23T14:48:12;101522.34;;;14.11;100.00
54882;BME280;40775;51.448;4.742;2023-02-23T14:50:41;101532.81;;;14.06;100.00
54882;BME280;40775;51.448;4.742;2023-02-23T14:53:21;101529.38;;;14.10;100.00
54882;BME280;40775;51.448;4.742;2023-02-23T14:55:49;101523.28;;;14.16;100.00
54882;BME280;40775;51.448;4.742;2023-02-23T14:58:29;101533.91;;;14.20;100.00
54882;BME280;40775;51.448;4.742;2023-02-23T15:00:59;101527.72;;;14.17;100.00
54882;BME280;40775;51.448;4.742;2023-02-23T15:03:26;101533.03;;;14.20;100.00
54882;BME280;40775;51.448;4.742;2023-02-23T15:05:58;101530.41;;;14.20;100.00
54882;BME280;40775;51.448;4.742;2023-02-23T15:08:28;101536.47;;;14.14;100.00
54882;BME280;40775;51.448;4.742;2023-02-23T15:11:04;101535.50;;;14.08;100.00